Terminal Aerodrome Forecast
Issued by NWS Quad Cities IA IL

Home | Current Version | Previous Version | Text Only | Print | Product List | Glossary On
Versions: 1 2 3 4 5 6 7 8 9 10 11 12 13 14 15 16 17 18 19 20 21 22 23 24 25 26 27 28 29 30
000
FTUS43 KDVN 011732 AAA
TAFMLI
TAF AMD
KMLI 011732Z 0118/0218 07009KT P6SM BKN015 BKN120
      TEMPO 0118/0120 6SM HZ BKN020
     FM012000 07009KT P6SM SCT025 BKN120
     FM020900 08005KT 5SM BR SCT012 BKN120
     FM021300 08007KT P6SM SCT015=

USA.gov is the U.S. government's official web portal to all federal, state and local government web resources and services.